sensor_id;sensor_type;location;lat;lon;timestamp;P1;durP1;ratioP1;P2;durP2;ratioP2
58864;SDS011;45702;52.982;6.658;2023-02-08T00:01:17;63.53;;;26.10;;
58864;SDS011;45702;52.982;6.658;2023-02-08T00:03:47;66.68;;;26.90;;
58864;SDS011;45702;52.982;6.658;2023-02-08T00:06:13;58.28;;;26.17;;
58864;SDS011;45702;52.982;6.658;2023-02-08T00:08:40;59.15;;;25.65;;
58864;SDS011;45702;52.982;6.658;2023-02-08T00:11:06;58.47;;;26.08;;
58864;SDS011;45702;52.982;6.658;2023-02-08T00:13:34;60.72;;;25.63;;
58864;SDS011;45702;52.982;6.658;2023-02-08T00:16:01;60.80;;;25.67;;
58864;SDS011;45702;52.982;6.658;2023-02-08T00:18:27;61.70;;;25.42;;
58864;SDS011;45702;52.982;6.658;2023-02-08T00:20:52;55.47;;;26.45;;
58864;SDS011;45702;52.982;6.658;2023-02-08T00:23:19;63.80;;;26.55;;
58864;SDS011;45702;52.982;6.658;2023-02-08T00:25:45;59.70;;;25.83;;
58864;SDS011;45702;52.982;6.658;2023-02-08T00:28:12;61.08;;;26.08;;
58864;SDS011;45702;52.982;6.658;2023-02-08T00:30:38;58.67;;;27.27;;
58864;SDS011;45702;52.982;6.658;2023-02-08T00:33:05;67.22;;;27.42;;
58864;SDS011;45702;52.982;6.658;2023-02-08T00:35:31;64.93;;;27.02;;
58864;SDS011;45702;52.982;6.658;2023-02-08T00:37:56;62.65;;;27.48;;
58864;SDS011;45702;52.982;6.658;2023-02-08T00:40:22;63.95;;;27.27;;
58864;SDS011;45702;52.982;6.658;2023-02-08T00:42:48;57.42;;;27.17;;
58864;SDS011;45702;52.982;6.658;2023-02-08T00:45:14;62.42;;;27.60;;
58864;SDS011;45702;52.982;6.658;2023-02-08T00:47:40;62.17;;;27.20;;
58864;SDS011;45702;52.982;6.658;2023-02-08T00:50:06;66.82;;;27.83;;
58864;SDS011;45702;52.982;6.658;2023-02-08T00:52:32;65.13;;;27.52;;
58864;SDS011;45702;52.982;6.658;2023-02-08T00:54:58;60.78;;;27.23;;
58864;SDS011;45702;52.982;6.658;2023-02-08T00:57:23;66.05;;;27.45;;
58864;SDS011;45702;52.982;6.658;2023-02-08T00:59:49;57.08;;;26.15;;
58864;SDS011;45702;52.982;6.658;2023-02-08T01:02:15;64.22;;;27.60;;
58864;SDS011;45702;52.982;6.658;2023-02-08T01:04:41;59.00;;;25.80;;
58864;SDS011;45702;52.982;6.658;2023-02-08T01:07:07;61.10;;;26.70;;
58864;SDS011;45702;52.982;6.658;2023-02-08T01:09:32;68.88;;;26.77;;
58864;SDS011;45702;52.982;6.658;2023-02-08T01:11:58;60.53;;;26.35;;
58864;SDS011;45702;52.982;6.658;2023-02-08T01:14:24;59.58;;;26.70;;
58864;SDS011;45702;52.982;6.658;2023-02-08T01:16:50;62.42;;;27.52;;
58864;SDS011;45702;52.982;6.658;2023-02-08T01:19:16;64.38;;;26.50;;
58864;SDS011;45702;52.982;6.658;2023-02-08T01:21:42;58.63;;;25.38;;
58864;SDS011;45702;52.982;6.658;2023-02-08T01:24:08;59.95;;;26.17;;
58864;SDS011;45702;52.982;6.658;2023-02-08T01:26:34;58.45;;;26.65;;
58864;SDS011;45702;52.982;6.658;2023-02-08T01:29:00;64.57;;;27.63;;
58864;SDS011;45702;52.982;6.658;2023-02-08T01:31:27;61.17;;;27.40;;
58864;SDS011;45702;52.982;6.658;2023-02-08T01:33:55;56.78;;;26.17;;
58864;SDS011;45702;52.982;6.658;2023-02-08T01:36:23;64.43;;;26.50;;
58864;SDS011;45702;52.982;6.658;2023-02-08T01:38:49;64.95;;;27.98;;
58864;SDS011;45702;52.982;6.658;2023-02-08T01:41:19;62.28;;;27.05;;
58864;SDS011;45702;52.982;6.658;2023-02-08T01:46:43;65.68;;;27.70;;
58864;SDS011;45702;52.982;6.658;2023-02-08T01:49:12;63.42;;;26.73;;
58864;SDS011;45702;52.982;6.658;2023-02-08T01:52:01;60.78;;;26.25;;
58864;SDS011;45702;52.982;6.658;2023-02-08T01:54:39;65.47;;;27.13;;
58864;SDS011;45702;52.982;6.658;2023-02-08T01:57:10;61.08;;;27.17;;
58864;SDS011;45702;52.982;6.658;2023-02-08T01:59:44;60.38;;;25.77;;
58864;SDS011;45702;52.982;6.658;2023-02-08T02:02:18;63.25;;;26.27;;
58864;SDS011;45702;52.982;6.658;2023-02-08T02:04:46;62.78;;;27.02;;
58864;SDS011;45702;52.982;6.658;2023-02-08T02:07:13;67.57;;;26.77;;
58864;SDS011;45702;52.982;6.658;2023-02-08T02:09:44;67.82;;;29.13;;
58864;SDS011;45702;52.982;6.658;2023-02-08T02:12:15;64.30;;;28.42;;
58864;SDS011;45702;52.982;6.658;2023-02-08T02:14:41;59.72;;;26.80;;
58864;SDS011;45702;52.982;6.658;2023-02-08T02:17:09;61.85;;;28.33;;
58864;SDS011;45702;52.982;6.658;2023-02-08T02:36:34;67.88;;;27.35;;
58864;SDS011;45702;52.982;6.658;2023-02-08T02:41:55;63.50;;;28.13;;
58864;SDS011;45702;52.982;6.658;2023-02-08T02:47:44;60.72;;;28.10;;
58864;SDS011;45702;52.982;6.658;2023-02-08T02:50:28;65.13;;;29.02;;
58864;SDS011;45702;52.982;6.658;2023-02-08T02:52:59;71.97;;;30.27;;
58864;SDS011;45702;52.982;6.658;2023-02-08T02:55:48;68.88;;;29.85;;
58864;SDS011;45702;52.982;6.658;2023-02-08T02:58:20;66.30;;;29.92;;
58864;SDS011;45702;52.982;6.658;2023-02-08T03:00:51;70.13;;;31.70;;
58864;SDS011;45702;52.982;6.658;2023-02-08T03:03:25;77.30;;;31.08;;
58864;SDS011;45702;52.982;6.658;2023-02-08T03:11:40;69.78;;;32.55;;
58864;SDS011;45702;52.982;6.658;2023-02-08T03:14:27;68.60;;;31.50;;
58864;SDS011;45702;52.982;6.658;2023-02-08T03:19:44;71.60;;;31.30;;
58864;SDS011;45702;52.982;6.658;2023-02-08T03:22:19;77.72;;;31.35;;
58864;SDS011;45702;52.982;6.658;2023-02-08T03:24:57;67.60;;;31.30;;
58864;SDS011;45702;52.982;6.658;2023-02-08T03:27:30;69.43;;;31.20;;
58864;SDS011;45702;52.982;6.658;2023-02-08T03:35:43;71.72;;;31.88;;
58864;SDS011;45702;52.982;6.658;2023-02-08T03:38:42;72.70;;;32.63;;
58864;SDS011;45702;52.982;6.658;2023-02-08T03:41:13;70.72;;;31.02;;
58864;SDS011;45702;52.982;6.658;2023-02-08T03:43:43;75.60;;;32.45;;
58864;SDS011;45702;52.982;6.658;2023-02-08T03:46:20;67.57;;;31.15;;
58864;SDS011;45702;52.982;6.658;2023-02-08T03:48:58;70.50;;;32.55;;
58864;SDS011;45702;52.982;6.658;2023-02-08T03:51:29;79.25;;;31.85;;
58864;SDS011;45702;52.982;6.658;2023-02-08T03:53:57;72.68;;;31.77;;
58864;SDS011;45702;52.982;6.658;2023-02-08T03:56:27;66.85;;;30.80;;
58864;SDS011;45702;52.982;6.658;2023-02-08T03:59:03;73.97;;;31.77;;
58864;SDS011;45702;52.982;6.658;2023-02-08T04:01:43;68.70;;;30.08;;
58864;SDS011;45702;52.982;6.658;2023-02-08T04:06:38;68.57;;;30.38;;
58864;SDS011;45702;52.982;6.658;2023-02-08T04:09:03;68.82;;;30.98;;
58864;SDS011;45702;52.982;6.658;2023-02-08T04:11:29;63.72;;;29.95;;
58864;SDS011;45702;52.982;6.658;2023-02-08T04:13:55;66.82;;;30.38;;
58864;SDS011;45702;52.982;6.658;2023-02-08T04:16:20;70.82;;;32.55;;
58864;SDS011;45702;52.982;6.658;2023-02-08T04:18:46;71.13;;;32.25;;
58864;SDS011;45702;52.982;6.658;2023-02-08T04:21:12;68.47;;;31.02;;
58864;SDS011;45702;52.982;6.658;2023-02-08T04:23:37;64.97;;;31.63;;
58864;SDS011;45702;52.982;6.658;2023-02-08T04:26:03;72.07;;;32.20;;
58864;SDS011;45702;52.982;6.658;2023-02-08T04:28:31;65.80;;;30.80;;
58864;SDS011;45702;52.982;6.658;2023-02-08T04:30:57;76.75;;;32.60;;
58864;SDS011;45702;52.982;6.658;2023-02-08T04:33:22;70.50;;;32.20;;
58864;SDS011;45702;52.982;6.658;2023-02-08T04:35:48;73.97;;;33.72;;
58864;SDS011;45702;52.982;6.658;2023-02-08T04:38:14;76.00;;;34.35;;
58864;SDS011;45702;52.982;6.658;2023-02-08T04:40:39;78.85;;;34.72;;
58864;SDS011;45702;52.982;6.658;2023-02-08T04:43:05;82.60;;;34.72;;
58864;SDS011;45702;52.982;6.658;2023-02-08T04:45:30;85.03;;;36.60;;
58864;SDS011;45702;52.982;6.658;2023-02-08T04:47:57;85.45;;;36.50;;
58864;SDS011;45702;52.982;6.658;2023-02-08T04:52:52;82.90;;;35.35;;
58864;SDS011;45702;52.982;6.658;2023-02-08T04:55:17;84.15;;;36.13;;
58864;SDS011;45702;52.982;6.658;2023-02-08T04:57:43;88.85;;;36.28;;
58864;SDS011;45702;52.982;6.658;2023-02-08T05:00:09;88.35;;;37.13;;
58864;SDS011;45702;52.982;6.658;2023-02-08T05:02:35;76.07;;;33.72;;
58864;SDS011;45702;52.982;6.658;2023-02-08T05:05:01;77.75;;;35.50;;
58864;SDS011;45702;52.982;6.658;2023-02-08T05:07:27;81.63;;;36.28;;
58864;SDS011;45702;52.982;6.658;2023-02-08T05:09:53;79.30;;;34.95;;
58864;SDS011;45702;52.982;6.658;2023-02-08T05:12:18;83.60;;;36.03;;
58864;SDS011;45702;52.982;6.658;2023-02-08T05:14:44;74.32;;;33.22;;
58864;SDS011;45702;52.982;6.658;2023-02-08T05:17:10;77.60;;;34.53;;
58864;SDS011;45702;52.982;6.658;2023-02-08T05:19:35;79.05;;;35.35;;
58864;SDS011;45702;52.982;6.658;2023-02-08T05:22:01;72.88;;;33.88;;
58864;SDS011;45702;52.982;6.658;2023-02-08T05:24:27;75.38;;;34.45;;
58864;SDS011;45702;52.982;6.658;2023-02-08T05:26:52;75.07;;;33.15;;
58864;SDS011;45702;52.982;6.658;2023-02-08T05:29:18;75.75;;;34.15;;
58864;SDS011;45702;52.982;6.658;2023-02-08T05:31:44;79.97;;;36.28;;
58864;SDS011;45702;52.982;6.658;2023-02-08T05:34:09;78.65;;;34.53;;
58864;SDS011;45702;52.982;6.658;2023-02-08T05:36:36;74.85;;;34.75;;
58864;SDS011;45702;52.982;6.658;2023-02-08T05:39:02;77.55;;;35.72;;
58864;SDS011;45702;52.982;6.658;2023-02-08T05:41:28;77.00;;;35.65;;
58864;SDS011;45702;52.982;6.658;2023-02-08T05:43:53;77.00;;;34.28;;
58864;SDS011;45702;52.982;6.658;2023-02-08T05:46:19;77.03;;;33.55;;
58864;SDS011;45702;52.982;6.658;2023-02-08T05:48:45;84.03;;;35.58;;
58864;SDS011;45702;52.982;6.658;2023-02-08T05:51:10;77.32;;;34.30;;
58864;SDS011;45702;52.982;6.658;2023-02-08T05:53:36;82.78;;;35.45;;
58864;SDS011;45702;52.982;6.658;2023-02-08T05:56:02;78.45;;;34.65;;
58864;SDS011;45702;52.982;6.658;2023-02-08T05:58:28;76.93;;;34.42;;
58864;SDS011;45702;52.982;6.658;2023-02-08T06:00:54;75.15;;;34.08;;
58864;SDS011;45702;52.982;6.658;2023-02-08T06:03:20;84.65;;;35.67;;
58864;SDS011;45702;52.982;6.658;2023-02-08T06:05:46;82.95;;;35.85;;
58864;SDS011;45702;52.982;6.658;2023-02-08T06:08:12;82.63;;;36.03;;
58864;SDS011;45702;52.982;6.658;2023-02-08T06:10:38;78.55;;;34.20;;
58864;SDS011;45702;52.982;6.658;2023-02-08T06:13:03;80.78;;;35.92;;
58864;SDS011;45702;52.982;6.658;2023-02-08T06:15:29;81.70;;;36.00;;
58864;SDS011;45702;52.982;6.658;2023-02-08T06:17:55;82.65;;;35.85;;
58864;SDS011;45702;52.982;6.658;2023-02-08T06:20:20;83.20;;;36.90;;
58864;SDS011;45702;52.982;6.658;2023-02-08T06:22:46;83.95;;;37.72;;
58864;SDS011;45702;52.982;6.658;2023-02-08T06:25:12;79.93;;;36.55;;
58864;SDS011;45702;52.982;6.658;2023-02-08T06:27:38;71.68;;;34.75;;
58864;SDS011;45702;52.982;6.658;2023-02-08T06:30:03;86.15;;;37.17;;
58864;SDS011;45702;52.982;6.658;2023-02-08T06:32:29;78.50;;;35.83;;
58864;SDS011;45702;52.982;6.658;2023-02-08T06:34:55;81.10;;;36.90;;
58864;SDS011;45702;52.982;6.658;2023-02-08T06:37:21;80.07;;;36.60;;
58864;SDS011;45702;52.982;6.658;2023-02-08T06:39:47;81.97;;;35.95;;
58864;SDS011;45702;52.982;6.658;2023-02-08T06:42:13;78.70;;;36.00;;
58864;SDS011;45702;52.982;6.658;2023-02-08T06:44:38;78.38;;;35.05;;
58864;SDS011;45702;52.982;6.658;2023-02-08T06:47:04;76.28;;;33.80;;
58864;SDS011;45702;52.982;6.658;2023-02-08T06:49:30;79.32;;;35.35;;
58864;SDS011;45702;52.982;6.658;2023-02-08T06:51:55;80.40;;;35.80;;
58864;SDS011;45702;52.982;6.658;2023-02-08T06:54:21;84.10;;;36.15;;
58864;SDS011;45702;52.982;6.658;2023-02-08T06:56:47;83.43;;;36.17;;
58864;SDS011;45702;52.982;6.658;2023-02-08T06:59:13;88.90;;;36.38;;
58864;SDS011;45702;52.982;6.658;2023-02-08T07:01:38;86.00;;;38.00;;
58864;SDS011;45702;52.982;6.658;2023-02-08T07:04:04;83.07;;;37.05;;
58864;SDS011;45702;52.982;6.658;2023-02-08T07:06:30;83.60;;;36.10;;
58864;SDS011;45702;52.982;6.658;2023-02-08T07:08:56;78.40;;;35.00;;
58864;SDS011;45702;52.982;6.658;2023-02-08T07:11:21;80.57;;;34.65;;
58864;SDS011;45702;52.982;6.658;2023-02-08T07:13:50;84.47;;;36.80;;
58864;SDS011;45702;52.982;6.658;2023-02-08T07:18:43;77.85;;;35.17;;
58864;SDS011;45702;52.982;6.658;2023-02-08T07:21:09;83.93;;;36.45;;
58864;SDS011;45702;52.982;6.658;2023-02-08T07:23:36;75.97;;;35.60;;
58864;SDS011;45702;52.982;6.658;2023-02-08T07:26:04;90.53;;;37.88;;
58864;SDS011;45702;52.982;6.658;2023-02-08T07:30:57;89.70;;;36.05;;
58864;SDS011;45702;52.982;6.658;2023-02-08T07:33:23;82.22;;;37.20;;
58864;SDS011;45702;52.982;6.658;2023-02-08T07:35:49;99.07;;;38.28;;
58864;SDS011;45702;52.982;6.658;2023-02-08T07:38:14;88.38;;;38.58;;
58864;SDS011;45702;52.982;6.658;2023-02-08T07:40:40;88.45;;;37.53;;
58864;SDS011;45702;52.982;6.658;2023-02-08T07:43:06;88.13;;;38.95;;
58864;SDS011;45702;52.982;6.658;2023-02-08T07:45:31;94.97;;;41.08;;
58864;SDS011;45702;52.982;6.658;2023-02-08T07:47:58;87.88;;;38.75;;
58864;SDS011;45702;52.982;6.658;2023-02-08T07:50:24;93.53;;;39.97;;
58864;SDS011;45702;52.982;6.658;2023-02-08T07:52:49;95.57;;;39.97;;
58864;SDS011;45702;52.982;6.658;2023-02-08T07:55:15;90.55;;;39.30;;
58864;SDS011;45702;52.982;6.658;2023-02-08T07:57:44;88.20;;;38.13;;
58864;SDS011;45702;52.982;6.658;2023-02-08T08:00:11;90.65;;;39.33;;
58864;SDS011;45702;52.982;6.658;2023-02-08T08:02:38;95.93;;;41.35;;
58864;SDS011;45702;52.982;6.658;2023-02-08T08:05:04;97.03;;;39.60;;
58864;SDS011;45702;52.982;6.658;2023-02-08T08:07:30;102.68;;;41.92;;
58864;SDS011;45702;52.982;6.658;2023-02-08T08:09:57;93.00;;;40.65;;
58864;SDS011;45702;52.982;6.658;2023-02-08T08:12:22;106.80;;;41.75;;
58864;SDS011;45702;52.982;6.658;2023-02-08T08:14:51;101.85;;;40.75;;
58864;SDS011;45702;52.982;6.658;2023-02-08T08:17:17;103.93;;;43.13;;
58864;SDS011;45702;52.982;6.658;2023-02-08T08:19:43;102.13;;;42.15;;
58864;SDS011;45702;52.982;6.658;2023-02-08T08:22:08;114.70;;;43.80;;
58864;SDS011;45702;52.982;6.658;2023-02-08T08:24:35;113.10;;;43.92;;
58864;SDS011;45702;52.982;6.658;2023-02-08T08:27:01;105.35;;;42.40;;
58864;SDS011;45702;52.982;6.658;2023-02-08T08:29:27;112.38;;;43.40;;
58864;SDS011;45702;52.982;6.658;2023-02-08T08:31:55;104.50;;;44.00;;
58864;SDS011;45702;52.982;6.658;2023-02-08T08:34:20;109.38;;;44.30;;
58864;SDS011;45702;52.982;6.658;2023-02-08T08:36:53;108.15;;;44.03;;
58864;SDS011;45702;52.982;6.658;2023-02-08T08:41:48;107.97;;;44.25;;
58864;SDS011;45702;52.982;6.658;2023-02-08T08:44:14;106.40;;;44.88;;
58864;SDS011;45702;52.982;6.658;2023-02-08T08:46:39;110.15;;;43.80;;
58864;SDS011;45702;52.982;6.658;2023-02-08T08:49:05;98.45;;;42.22;;
58864;SDS011;45702;52.982;6.658;2023-02-08T08:51:31;107.38;;;42.40;;
58864;SDS011;45702;52.982;6.658;2023-02-08T08:54:03;99.60;;;41.13;;
58864;SDS011;45702;52.982;6.658;2023-02-08T08:56:30;95.88;;;41.67;;
58864;SDS011;45702;52.982;6.658;2023-02-08T08:58:57;96.85;;;40.55;;
58864;SDS011;45702;52.982;6.658;2023-02-08T09:01:22;91.43;;;39.67;;
58864;SDS011;45702;52.982;6.658;2023-02-08T09:03:48;88.88;;;38.65;;
58864;SDS011;45702;52.982;6.658;2023-02-08T09:06:14;93.13;;;39.28;;
58864;SDS011;45702;52.982;6.658;2023-02-08T09:08:40;87.55;;;38.45;;
58864;SDS011;45702;52.982;6.658;2023-02-08T09:11:07;91.38;;;38.50;;
58864;SDS011;45702;52.982;6.658;2023-02-08T09:13:35;90.20;;;40.25;;
58864;SDS011;45702;52.982;6.658;2023-02-08T09:16:08;84.03;;;39.35;;
58864;SDS011;45702;52.982;6.658;2023-02-08T09:18:38;84.03;;;37.38;;
58864;SDS011;45702;52.982;6.658;2023-02-08T09:21:07;85.13;;;38.15;;
58864;SDS011;45702;52.982;6.658;2023-02-08T09:23:35;87.35;;;37.75;;
58864;SDS011;45702;52.982;6.658;2023-02-08T09:26:02;86.32;;;38.10;;
58864;SDS011;45702;52.982;6.658;2023-02-08T09:28:29;83.15;;;37.33;;
58864;SDS011;45702;52.982;6.658;2023-02-08T09:30:54;79.15;;;35.47;;
58864;SDS011;45702;52.982;6.658;2023-02-08T09:33:20;78.25;;;36.05;;
58864;SDS011;45702;52.982;6.658;2023-02-08T09:35:45;75.72;;;36.28;;
58864;SDS011;45702;52.982;6.658;2023-02-08T09:38:11;73.15;;;33.92;;
58864;SDS011;45702;52.982;6.658;2023-02-08T09:40:41;86.07;;;34.80;;
58864;SDS011;45702;52.982;6.658;2023-02-08T09:43:35;77.47;;;33.85;;
58864;SDS011;45702;52.982;6.658;2023-02-08T09:46:23;78.25;;;35.40;;
58864;SDS011;45702;52.982;6.658;2023-02-08T09:48:53;77.13;;;35.22;;
58864;SDS011;45702;52.982;6.658;2023-02-08T09:53:52;76.82;;;34.00;;
58864;SDS011;45702;52.982;6.658;2023-02-08T09:56:25;76.18;;;33.78;;
58864;SDS011;45702;52.982;6.658;2023-02-08T09:58:54;77.38;;;34.15;;
58864;SDS011;45702;52.982;6.658;2023-02-08T10:01:22;69.45;;;33.30;;
58864;SDS011;45702;52.982;6.658;2023-02-08T10:03:55;74.32;;;35.63;;
58864;SDS011;45702;52.982;6.658;2023-02-08T10:06:25;72.30;;;31.25;;
58864;SDS011;45702;52.982;6.658;2023-02-08T10:08:51;69.32;;;32.33;;
58864;SDS011;45702;52.982;6.658;2023-02-08T10:25:18;55.15;;;26.75;;
58864;SDS011;45702;52.982;6.658;2023-02-08T10:36:11;45.55;;;23.85;;
58864;SDS011;45702;52.982;6.658;2023-02-08T10:38:42;47.42;;;23.75;;
58864;SDS011;45702;52.982;6.658;2023-02-08T10:41:08;43.80;;;24.65;;
58864;SDS011;45702;52.982;6.658;2023-02-08T10:43:44;42.97;;;22.88;;
58864;SDS011;45702;52.982;6.658;2023-02-08T10:51:55;41.72;;;22.42;;
58864;SDS011;45702;52.982;6.658;2023-02-08T10:54:20;38.28;;;21.23;;
58864;SDS011;45702;52.982;6.658;2023-02-08T10:59:19;39.90;;;21.60;;
58864;SDS011;45702;52.982;6.658;2023-02-08T11:01:48;38.78;;;20.67;;
58864;SDS011;45702;52.982;6.658;2023-02-08T11:04:15;36.08;;;20.45;;
58864;SDS011;45702;52.982;6.658;2023-02-08T11:06:42;36.83;;;19.95;;
58864;SDS011;45702;52.982;6.658;2023-02-08T11:09:19;35.97;;;20.23;;
58864;SDS011;45702;52.982;6.658;2023-02-08T11:11:53;33.85;;;18.73;;
58864;SDS011;45702;52.982;6.658;2023-02-08T11:14:27;29.50;;;17.52;;
58864;SDS011;45702;52.982;6.658;2023-02-08T11:16:56;32.42;;;18.02;;
58864;SDS011;45702;52.982;6.658;2023-02-08T11:19:37;31.33;;;17.23;;
58864;SDS011;45702;52.982;6.658;2023-02-08T11:22:17;31.35;;;17.35;;
58864;SDS011;45702;52.982;6.658;2023-02-08T11:24:44;32.38;;;17.73;;
58864;SDS011;45702;52.982;6.658;2023-02-08T11:30:35;27.77;;;15.55;;
58864;SDS011;45702;52.982;6.658;2023-02-08T11:32:45;26.65;;;14.95;;
58864;SDS011;45702;52.982;6.658;2023-02-08T11:35:22;27.33;;;14.15;;
58864;SDS011;45702;52.982;6.658;2023-02-08T11:37:53;30.35;;;14.02;;
58864;SDS011;45702;52.982;6.658;2023-02-08T11:42:55;24.60;;;13.93;;
58864;SDS011;45702;52.982;6.658;2023-02-08T11:45:33;26.05;;;14.02;;
58864;SDS011;45702;52.982;6.658;2023-02-08T11:48:00;23.67;;;13.27;;
58864;SDS011;45702;52.982;6.658;2023-02-08T11:50:37;27.67;;;14.65;;
58864;SDS011;45702;52.982;6.658;2023-02-08T11:53:04;22.50;;;12.98;;
58864;SDS011;45702;52.982;6.658;2023-02-08T11:55:32;25.08;;;13.63;;
58864;SDS011;45702;52.982;6.658;2023-02-08T12:00:56;22.00;;;11.43;;
58864;SDS011;45702;52.982;6.658;2023-02-08T12:03:31;18.38;;;10.07;;
58864;SDS011;45702;52.982;6.658;2023-02-08T12:22:12;19.63;;;10.63;;
58864;SDS011;45702;52.982;6.658;2023-02-08T12:24:48;19.33;;;11.35;;
58864;SDS011;45702;52.982;6.658;2023-02-08T12:30:35;20.30;;;11.60;;
58864;SDS011;45702;52.982;6.658;2023-02-08T12:41:26;19.08;;;10.75;;
58864;SDS011;45702;52.982;6.658;2023-02-08T12:49:49;17.83;;;9.93;;
58864;SDS011;45702;52.982;6.658;2023-02-08T12:52:23;16.55;;;9.45;;
58864;SDS011;45702;52.982;6.658;2023-02-08T12:55:00;19.10;;;10.50;;
58864;SDS011;45702;52.982;6.658;2023-02-08T12:57:37;18.15;;;10.43;;
58864;SDS011;45702;52.982;6.658;2023-02-08T13:00:13;17.38;;;10.70;;
58864;SDS011;45702;52.982;6.658;2023-02-08T13:05:37;20.33;;;10.98;;
58864;SDS011;45702;52.982;6.658;2023-02-08T13:08:29;18.25;;;10.55;;
58864;SDS011;45702;52.982;6.658;2023-02-08T13:11:05;18.25;;;10.75;;
58864;SDS011;45702;52.982;6.658;2023-02-08T13:14:02;21.13;;;11.80;;
58864;SDS011;45702;52.982;6.658;2023-02-08T13:16:41;20.58;;;11.50;;
58864;SDS011;45702;52.982;6.658;2023-02-08T13:19:28;19.35;;;12.02;;
58864;SDS011;45702;52.982;6.658;2023-02-08T13:22:00;21.25;;;12.20;;
58864;SDS011;45702;52.982;6.658;2023-02-08T13:26:58;18.00;;;10.85;;
58864;SDS011;45702;52.982;6.658;2023-02-08T13:29:24;21.67;;;11.63;;
58864;SDS011;45702;52.982;6.658;2023-02-08T13:31:53;22.60;;;12.07;;
58864;SDS011;45702;52.982;6.658;2023-02-08T13:34:28;19.52;;;12.15;;
58864;SDS011;45702;52.982;6.658;2023-02-08T13:37:02;22.60;;;12.68;;
58864;SDS011;45702;52.982;6.658;2023-02-08T13:39:41;17.50;;;10.27;;
58864;SDS011;45702;52.982;6.658;2023-02-08T13:42:28;16.40;;;9.43;;
58864;SDS011;45702;52.982;6.658;2023-02-08T13:45:00;14.35;;;9.25;;
58864;SDS011;45702;52.982;6.658;2023-02-08T13:47:29;15.60;;;9.07;;
58864;SDS011;45702;52.982;6.658;2023-02-08T13:49:58;18.52;;;9.82;;
58864;SDS011;45702;52.982;6.658;2023-02-08T14:03:22;19.48;;;9.45;;
58864;SDS011;45702;52.982;6.658;2023-02-08T14:08:29;21.40;;;10.50;;
58864;SDS011;45702;52.982;6.658;2023-02-08T14:11:15;19.63;;;11.45;;
58864;SDS011;45702;52.982;6.658;2023-02-08T14:17:07;27.98;;;15.07;;
58864;SDS011;45702;52.982;6.658;2023-02-08T14:19:41;20.58;;;10.88;;
58864;SDS011;45702;52.982;6.658;2023-02-08T14:24:37;16.50;;;9.32;;
58864;SDS011;45702;52.982;6.658;2023-02-08T14:27:23;15.02;;;8.45;;
58864;SDS011;45702;52.982;6.658;2023-02-08T14:32:41;21.83;;;10.65;;
58864;SDS011;45702;52.982;6.658;2023-02-08T14:37:46;15.90;;;8.50;;
58864;SDS011;45702;52.982;6.658;2023-02-08T14:45:33;18.38;;;10.57;;
58864;SDS011;45702;52.982;6.658;2023-02-08T14:48:13;19.02;;;10.18;;
58864;SDS011;45702;52.982;6.658;2023-02-08T14:50:56;20.65;;;10.65;;
58864;SDS011;45702;52.982;6.658;2023-02-08T14:53:43;20.10;;;11.25;;
58864;SDS011;45702;52.982;6.658;2023-02-08T14:56:32;19.30;;;11.18;;
58864;SDS011;45702;52.982;6.658;2023-02-08T14:59:03;23.25;;;11.75;;
58864;SDS011;45702;52.982;6.658;2023-02-08T15:01:40;20.70;;;11.45;;
58864;SDS011;45702;52.982;6.658;2023-02-08T15:04:06;17.52;;;10.23;;
58864;SDS011;45702;52.982;6.658;2023-02-08T15:11:29;20.65;;;10.77;;
58864;SDS011;45702;52.982;6.658;2023-02-08T15:13:57;19.63;;;10.85;;
58864;SDS011;45702;52.982;6.658;2023-02-08T15:16:32;20.83;;;10.43;;
58864;SDS011;45702;52.982;6.658;2023-02-08T15:19:01;18.83;;;10.07;;
58864;SDS011;45702;52.982;6.658;2023-02-08T15:21:31;18.58;;;9.98;;
58864;SDS011;45702;52.982;6.658;2023-02-08T15:24:02;18.60;;;9.63;;
58864;SDS011;45702;52.982;6.658;2023-02-08T15:26:32;18.88;;;10.23;;
58864;SDS011;45702;52.982;6.658;2023-02-08T15:28:58;17.25;;;9.70;;
58864;SDS011;45702;52.982;6.658;2023-02-08T15:31:29;17.30;;;10.07;;
58864;SDS011;45702;52.982;6.658;2023-02-08T15:33:57;17.42;;;9.90;;
58864;SDS011;45702;52.982;6.658;2023-02-08T15:38:55;17.80;;;9.88;;
58864;SDS011;45702;52.982;6.658;2023-02-08T15:41:26;22.35;;;10.48;;
58864;SDS011;45702;52.982;6.658;2023-02-08T15:44:00;19.02;;;10.30;;
58864;SDS011;45702;52.982;6.658;2023-02-08T15:46:44;18.05;;;9.50;;
58864;SDS011;45702;52.982;6.658;2023-02-08T15:49:15;22.50;;;10.52;;
58864;SDS011;45702;52.982;6.658;2023-02-08T15:51:45;20.95;;;10.18;;
58864;SDS011;45702;52.982;6.658;2023-02-08T15:54:16;17.13;;;9.95;;
58864;SDS011;45702;52.982;6.658;2023-02-08T15:56:46;22.52;;;11.40;;
58864;SDS011;45702;52.982;6.658;2023-02-08T15:59:18;22.13;;;11.23;;
58864;SDS011;45702;52.982;6.658;2023-02-08T16:01:48;20.33;;;10.73;;
58864;SDS011;45702;52.982;6.658;2023-02-08T16:04:16;21.90;;;11.32;;
58864;SDS011;45702;52.982;6.658;2023-02-08T16:07:00;21.00;;;10.90;;
58864;SDS011;45702;52.982;6.658;2023-02-08T16:09:27;19.35;;;10.55;;
58864;SDS011;45702;52.982;6.658;2023-02-08T16:11:57;20.98;;;11.00;;
58864;SDS011;45702;52.982;6.658;2023-02-08T16:14:24;21.73;;;11.20;;
58864;SDS011;45702;52.982;6.658;2023-02-08T16:16:54;24.02;;;11.32;;
58864;SDS011;45702;52.982;6.658;2023-02-08T16:19:22;22.60;;;11.48;;
58864;SDS011;45702;52.982;6.658;2023-02-08T16:21:55;24.30;;;11.55;;
58864;SDS011;45702;52.982;6.658;2023-02-08T16:24:40;23.70;;;12.38;;
58864;SDS011;45702;52.982;6.658;2023-02-08T16:27:14;24.45;;;11.98;;
58864;SDS011;45702;52.982;6.658;2023-02-08T16:29:46;20.50;;;11.75;;
58864;SDS011;45702;52.982;6.658;2023-02-08T16:34:48;23.48;;;12.32;;
58864;SDS011;45702;52.982;6.658;2023-02-08T16:39:54;21.50;;;11.52;;
58864;SDS011;45702;52.982;6.658;2023-02-08T16:42:21;46.03;;;24.20;;
58864;SDS011;45702;52.982;6.658;2023-02-08T16:47:58;39.15;;;18.95;;
58864;SDS011;45702;52.982;6.658;2023-02-08T16:50:24;37.50;;;18.52;;
58864;SDS011;45702;52.982;6.658;2023-02-08T16:52:52;29.45;;;16.75;;
58864;SDS011;45702;52.982;6.658;2023-02-08T16:55:26;26.00;;;14.73;;
58864;SDS011;45702;52.982;6.658;2023-02-08T17:00:25;26.30;;;14.10;;
58864;SDS011;45702;52.982;6.658;2023-02-08T17:02:53;28.10;;;14.48;;
58864;SDS011;45702;52.982;6.658;2023-02-08T17:05:20;23.70;;;12.80;;
58864;SDS011;45702;52.982;6.658;2023-02-08T17:07:48;27.52;;;13.63;;
58864;SDS011;45702;52.982;6.658;2023-02-08T17:10:19;28.65;;;14.20;;
58864;SDS011;45702;52.982;6.658;2023-02-08T17:12:56;29.85;;;14.65;;
58864;SDS011;45702;52.982;6.658;2023-02-08T17:15:22;23.80;;;13.57;;
58864;SDS011;45702;52.982;6.658;2023-02-08T17:17:49;28.45;;;14.32;;
58864;SDS011;45702;52.982;6.658;2023-02-08T17:20:20;26.83;;;13.48;;
58864;SDS011;45702;52.982;6.658;2023-02-08T17:22:49;28.42;;;14.25;;
58864;SDS011;45702;52.982;6.658;2023-02-08T17:25:16;30.42;;;14.50;;
58864;SDS011;45702;52.982;6.658;2023-02-08T17:27:46;27.00;;;13.95;;
58864;SDS011;45702;52.982;6.658;2023-02-08T17:30:32;24.83;;;12.77;;
58864;SDS011;45702;52.982;6.658;2023-02-08T17:33:00;28.52;;;14.55;;
58864;SDS011;45702;52.982;6.658;2023-02-08T17:35:28;29.25;;;13.68;;